Aviation Digital Data Service (ADDS)

Output produced by METARs form (1437 UTC 29 August 2015)
found at http://aviationweather.gov/adds/metars/
 
KEWN 291131Z 2912/3012 03006KT P6SM SKC 
     FM291500 05009KT P6SM SCT040 
     FM300900 VRB03KT 3SM BR OVC100